createdAt,value
2023-03-11T00:00:41.408Z,6.10
2023-03-11T00:03:09.319Z,6.95
2023-03-11T00:05:38.107Z,8.40
2023-03-11T00:08:06.284Z,8.43
2023-03-11T00:10:36.603Z,6.93
2023-03-11T00:13:04.442Z,6.30
2023-03-11T00:15:32.204Z,4.57
2023-03-11T00:17:59.953Z,3.03
2023-03-11T00:20:29.373Z,2.80
2023-03-11T00:22:56.677Z,2.25
2023-03-11T00:25:26.414Z,2.10
2023-03-11T00:27:54.933Z,2.03
2023-03-11T00:30:23.519Z,1.20
2023-03-11T00:35:20.352Z,0.90
2023-03-11T00:37:48.306Z,1.40
2023-03-11T00:40:17.224Z,1.30
2023-03-11T00:42:44.898Z,1.65
2023-03-11T00:45:14.766Z,1.13
2023-03-11T00:47:41.782Z,1.70
2023-03-11T00:50:12.360Z,1.92
2023-03-11T00:52:39.442Z,1.45
2023-03-11T00:55:07.163Z,1.83
2023-03-11T00:57:34.983Z,1.23
2023-03-11T01:00:02.688Z,1.60
2023-03-11T01:02:31.083Z,1.60
2023-03-11T01:04:58.037Z,1.23
2023-03-11T01:07:25.080Z,1.58
2023-03-11T01:09:51.959Z,1.65
2023-03-11T01:12:18.958Z,2.22
2023-03-11T01:14:46.211Z,1.98
2023-03-11T01:17:13.174Z,1.70
2023-03-11T01:19:41.516Z,1.00
2023-03-11T01:22:10.192Z,0.70
2023-03-11T01:24:37.290Z,0.73
2023-03-11T01:27:04.872Z,1.25
2023-03-11T01:29:31.980Z,1.00
2023-03-11T01:31:59.401Z,0.80
2023-03-11T01:34:26.947Z,1.40
2023-03-11T01:36:55.264Z,1.10
2023-03-11T01:39:22.202Z,1.75
2023-03-11T01:41:49.806Z,2.60
2023-03-11T01:44:16.817Z,3.28
2023-03-11T01:47:16.807Z,2.80
2023-03-11T01:49:43.766Z,3.30
2023-03-11T01:52:12.293Z,3.47
2023-03-11T01:54:50.657Z,3.25
2023-03-11T01:57:18.931Z,2.10
2023-03-11T01:59:49.260Z,2.15
2023-03-11T02:02:19.802Z,1.30
2023-03-11T02:04:47.372Z,1.10
2023-03-11T02:07:17.141Z,1.20
2023-03-11T02:09:45.519Z,3.10
2023-03-11T02:12:14.186Z,3.22
2023-03-11T02:14:43.934Z,3.38
2023-03-11T02:17:11.184Z,2.80
2023-03-11T02:19:46.028Z,2.58
2023-03-11T02:22:14.147Z,4.05
2023-03-11T02:24:45.810Z,4.50
2023-03-11T02:27:17.295Z,3.08
2023-03-11T02:29:48.181Z,3.38
2023-03-11T02:32:15.820Z,3.72
2023-03-11T02:34:44.240Z,4.22
2023-03-11T02:37:14.660Z,5.35
2023-03-11T02:39:46.998Z,4.25
2023-03-11T02:42:19.750Z,4.88
2023-03-11T02:44:49.573Z,4.60
2023-03-11T02:47:16.908Z,4.43
2023-03-11T02:49:44.131Z,4.72
2023-03-11T02:52:12.984Z,5.78
2023-03-11T02:54:39.963Z,5.72
2023-03-11T02:57:06.976Z,6.22
2023-03-11T02:59:35.325Z,6.25
2023-03-11T03:02:02.315Z,5.82
2023-03-11T03:04:29.849Z,5.25
2023-03-11T03:06:58.836Z,6.50
2023-03-11T03:09:25.820Z,6.25
2023-03-11T03:11:52.793Z,5.95
2023-03-11T03:14:19.807Z,4.63
2023-03-11T03:16:48.305Z,1.20
2023-03-11T03:21:42.232Z,0.85
2023-03-11T03:24:09.519Z,0.70
2023-03-11T03:26:36.782Z,0.40
2023-03-11T03:29:04.464Z,0.25
2023-03-11T03:31:31.658Z,0.10
2023-03-11T03:36:28.448Z,0.32
2023-03-11T03:39:01.647Z,0.10
2023-03-11T03:41:32.778Z,0.10
2023-03-11T03:43:59.867Z,0.43
2023-03-11T03:46:27.508Z,0.10
2023-03-11T03:48:57.616Z,0.30
2023-03-11T03:51:26.564Z,0.50
2023-03-11T03:54:08.540Z,0.63
2023-03-11T03:56:36.098Z,0.45
2023-03-11T03:59:03.140Z,0.10
2023-03-11T04:01:37.095Z,0.10
2023-03-11T04:04:05.150Z,0.40
2023-03-11T04:06:33.532Z,0.50
2023-03-11T04:09:04.307Z,0.10
2023-03-11T04:11:34.555Z,0.20
2023-03-11T04:14:02.839Z,0.10
2023-03-11T04:16:32.203Z,0.17
2023-03-11T04:19:05.877Z,0.30
2023-03-11T04:21:35.495Z,0.20
2023-03-11T04:24:03.105Z,0.30
2023-03-11T04:26:34.582Z,0.30
2023-03-11T04:29:02.279Z,0.10
2023-03-11T04:31:32.937Z,0.30
2023-03-11T04:34:03.688Z,0.10
2023-03-11T04:36:30.905Z,0.38
2023-03-11T04:38:59.454Z,0.40
2023-03-11T04:41:30.221Z,0.10
2023-03-11T04:43:59.436Z,0.40
2023-03-11T04:46:26.662Z,0.08
2023-03-11T04:48:53.958Z,0.10
2023-03-11T04:51:21.037Z,0.30
2023-03-11T04:53:48.030Z,0.20
2023-03-11T04:56:16.524Z,0.60
2023-03-11T04:58:43.569Z,0.63
2023-03-11T05:01:10.837Z,0.10
2023-03-11T05:03:38.004Z,0.17
2023-03-11T05:06:05.762Z,0.50
2023-03-11T05:08:32.734Z,0.40
2023-03-11T05:10:59.850Z,0.75
2023-03-11T05:13:28.885Z,0.10
2023-03-11T05:15:56.068Z,0.52
2023-03-11T05:18:23.299Z,0.30
2023-03-11T05:20:51.789Z,0.10
2023-03-11T05:23:21.987Z,0.40
2023-03-11T05:25:49.151Z,0.70
2023-03-11T05:28:16.321Z,0.20
2023-03-11T05:30:51.603Z,0.50
2023-03-11T05:33:19.397Z,0.50
2023-03-11T05:35:47.111Z,0.10
2023-03-11T05:38:14.915Z,0.55
2023-03-11T05:40:42.563Z,0.10
2023-03-11T05:43:09.887Z,0.10
2023-03-11T05:45:39.949Z,0.20
2023-03-11T05:48:08.588Z,0.20
2023-03-11T05:50:38.091Z,0.40
2023-03-11T05:55:32.757Z,0.10
2023-03-11T05:58:00.634Z,0.50
2023-03-11T06:00:29.604Z,0.17
2023-03-11T06:03:17.621Z,0.10
2023-03-11T06:05:47.187Z,0.20
2023-03-11T06:08:14.521Z,0.30
2023-03-11T06:10:41.515Z,0.57
2023-03-11T06:13:08.610Z,0.52
2023-03-11T06:15:44.078Z,1.05
2023-03-11T06:20:38.505Z,0.20
2023-03-11T06:23:06.969Z,0.20
2023-03-11T06:25:33.882Z,0.10
2023-03-11T06:28:01.312Z,0.55
2023-03-11T06:30:29.119Z,0.20
2023-03-11T06:33:05.993Z,0.60
2023-03-11T06:35:33.089Z,0.80
2023-03-11T06:38:00.704Z,0.20
2023-03-11T06:40:29.272Z,0.10
2023-03-11T06:45:25.374Z,0.63
2023-03-11T06:47:53.115Z,0.88
2023-03-11T06:50:23.731Z,0.80
2023-03-11T06:52:51.554Z,0.68
2023-03-11T06:55:18.491Z,0.73
2023-03-11T06:57:46.911Z,0.55
2023-03-11T07:00:15.193Z,0.28
2023-03-11T07:02:46.991Z,0.40
2023-03-11T07:05:15.883Z,0.57
2023-03-11T07:07:43.015Z,0.88
2023-03-11T07:10:11.301Z,0.60
2023-03-11T07:12:38.279Z,0.60
2023-03-11T07:15:08.364Z,0.20
2023-03-11T07:17:36.034Z,0.50
2023-03-11T07:20:03.561Z,0.50
2023-03-11T07:22:30.660Z,0.10
2023-03-11T07:24:57.638Z,0.10
2023-03-11T07:27:24.643Z,0.10
2023-03-11T07:29:51.667Z,0.63
2023-03-11T07:32:20.015Z,0.28
2023-03-11T07:34:47.053Z,0.75
2023-03-11T07:37:14.279Z,0.60
2023-03-11T07:39:41.806Z,0.20
2023-03-11T07:42:09.003Z,0.38
2023-03-11T07:44:36.852Z,0.63
2023-03-11T07:47:03.897Z,0.30
2023-03-11T07:49:32.537Z,0.73
2023-03-11T07:51:59.571Z,0.70
2023-03-11T07:54:26.559Z,1.17
2023-03-11T07:56:53.792Z,0.57
2023-03-11T07:59:20.807Z,0.57
2023-03-11T08:01:47.726Z,1.13
2023-03-11T08:04:17.237Z,1.00
2023-03-11T08:06:47.410Z,0.93
2023-03-11T08:09:14.570Z,0.80
2023-03-11T08:11:41.749Z,1.25
2023-03-11T08:14:09.035Z,0.45
2023-03-11T08:16:36.099Z,0.85
2023-03-11T08:19:03.414Z,0.82
2023-03-11T08:21:32.226Z,0.40
2023-03-11T08:24:02.447Z,1.10
2023-03-11T08:26:30.714Z,0.47
2023-03-11T08:28:58.447Z,0.40
2023-03-11T08:31:28.009Z,0.32
2023-03-11T08:33:57.607Z,0.30
2023-03-11T08:36:25.008Z,1.08
2023-03-11T08:38:52.101Z,0.47
2023-03-11T08:41:20.760Z,0.70
2023-03-11T08:43:47.869Z,0.50
2023-03-11T08:46:18.267Z,0.60
2023-03-11T08:48:45.270Z,0.90
2023-03-11T08:51:12.872Z,0.93
2023-03-11T08:53:39.866Z,1.20
2023-03-11T08:56:07.297Z,1.30
2023-03-11T08:58:35.895Z,0.50
2023-03-11T09:01:03.152Z,1.02
2023-03-11T09:03:31.803Z,0.98
2023-03-11T09:05:59.186Z,0.70
2023-03-11T09:08:26.396Z,0.90
2023-03-11T09:10:53.313Z,0.70
2023-03-11T09:13:20.416Z,0.80
2023-03-11T09:15:49.849Z,0.40
2023-03-11T09:18:17.868Z,0.65
2023-03-11T09:20:45.412Z,0.70
2023-03-11T09:23:14.462Z,0.60
2023-03-11T09:25:41.626Z,1.00
2023-03-11T09:28:08.721Z,1.15
2023-03-11T09:30:36.121Z,0.40
2023-03-11T09:33:04.646Z,0.45
2023-03-11T09:35:31.662Z,0.80
2023-03-11T09:37:58.629Z,0.77
2023-03-11T09:40:28.375Z,0.80
2023-03-11T09:43:05.396Z,0.98
2023-03-11T09:45:34.962Z,1.00
2023-03-11T09:48:10.842Z,0.75
2023-03-11T09:50:43.892Z,0.70
2023-03-11T09:53:19.020Z,0.90
2023-03-11T09:55:47.728Z,0.50
2023-03-11T09:58:21.868Z,0.90
2023-03-11T10:00:52.105Z,1.42
2023-03-11T10:03:39.901Z,0.50
2023-03-11T10:06:14.474Z,0.38
2023-03-11T10:11:22.704Z,0.82
2023-03-11T10:13:54.939Z,1.15
2023-03-11T10:16:25.931Z,1.00
2023-03-11T10:18:59.962Z,0.73
2023-03-11T10:21:39.240Z,1.20
2023-03-11T10:24:32.217Z,1.83
2023-03-11T10:27:00.822Z,0.90
2023-03-11T10:29:30.093Z,1.02
2023-03-11T10:32:01.409Z,0.30
2023-03-11T10:34:34.401Z,0.30
2023-03-11T10:37:04.180Z,0.40
2023-03-11T10:39:31.922Z,0.57
2023-03-11T10:42:00.882Z,0.70
2023-03-11T10:44:29.994Z,0.40
2023-03-11T10:46:56.923Z,0.20
2023-03-11T10:49:23.894Z,0.65
2023-03-11T10:51:53.522Z,0.20
2023-03-11T10:54:24.156Z,0.80
2023-03-11T10:56:55.706Z,0.40
2023-03-11T10:59:26.485Z,0.38
2023-03-11T11:01:58.092Z,0.50
2023-03-11T11:04:31.370Z,0.93
2023-03-11T11:07:20.565Z,0.80
2023-03-11T11:09:47.780Z,0.60
2023-03-11T11:12:16.079Z,0.40
2023-03-11T11:14:44.683Z,0.43
2023-03-11T11:17:20.110Z,0.40
2023-03-11T11:19:48.136Z,0.75
2023-03-11T11:22:18.531Z,0.60
2023-03-11T11:24:46.467Z,0.90
2023-03-11T11:27:17.889Z,1.45
2023-03-11T11:29:45.606Z,0.88
2023-03-11T11:32:22.078Z,0.88
2023-03-11T11:34:59.547Z,1.95
2023-03-11T11:37:32.209Z,0.43
2023-03-11T11:40:02.016Z,0.73
2023-03-11T11:42:30.163Z,1.10
2023-03-11T11:47:26.829Z,1.27
2023-03-11T11:49:55.774Z,0.98
2023-03-11T11:52:25.265Z,0.73
2023-03-11T11:54:57.870Z,0.90
2023-03-11T11:57:25.093Z,0.50
2023-03-11T11:59:52.019Z,1.10
2023-03-11T12:02:40.765Z,1.02
2023-03-11T12:05:10.674Z,0.70
2023-03-11T12:07:49.373Z,0.85
2023-03-11T12:10:26.362Z,0.65
2023-03-11T12:13:13.976Z,0.70
2023-03-11T12:15:43.109Z,0.88
2023-03-11T12:18:15.857Z,0.70
2023-03-11T12:20:44.652Z,0.77
2023-03-11T12:23:19.139Z,1.10
2023-03-11T12:26:12.342Z,0.85
2023-03-11T12:28:43.914Z,1.17
2023-03-11T12:31:12.584Z,0.88
2023-03-11T12:33:41.567Z,0.30
2023-03-11T12:36:21.939Z,0.45
2023-03-11T12:38:49.399Z,1.23
2023-03-11T12:41:33.613Z,0.85
2023-03-11T12:44:04.143Z,0.63
2023-03-11T12:47:04.733Z,0.60
2023-03-11T12:49:32.656Z,0.50
2023-03-11T12:52:05.444Z,0.38
2023-03-11T12:54:34.402Z,0.65
2023-03-11T12:57:04.020Z,0.85
2023-03-11T12:59:55.149Z,0.88
2023-03-11T13:02:31.659Z,0.88
2023-03-11T13:05:00.170Z,0.98
2023-03-11T13:07:47.303Z,0.65
2023-03-11T13:10:18.098Z,1.30
2023-03-11T13:12:47.886Z,0.55
2023-03-11T13:15:31.426Z,0.30
2023-03-11T13:17:59.987Z,0.75
2023-03-11T13:20:49.379Z,0.40
2023-03-11T13:23:36.493Z,0.63
2023-03-11T13:26:31.667Z,1.10
2023-03-11T13:29:27.753Z,0.98
2023-03-11T13:32:04.547Z,1.13
2023-03-11T13:34:40.489Z,1.50
2023-03-11T13:37:17.662Z,0.95
2023-03-11T13:39:55.035Z,0.60
2023-03-11T13:42:30.702Z,1.10
2023-03-11T13:44:59.990Z,0.70
2023-03-11T13:47:27.646Z,1.00
2023-03-11T13:50:00.351Z,0.40
2023-03-11T13:52:29.785Z,1.00
2023-03-11T13:55:01.555Z,0.57
2023-03-11T13:57:30.293Z,0.93
2023-03-11T14:00:03.978Z,0.57
2023-03-11T14:02:37.355Z,1.10
2023-03-11T14:05:07.116Z,1.17
2023-03-11T14:07:35.505Z,1.38
2023-03-11T14:10:20.350Z,1.92
2023-03-11T14:12:47.591Z,0.98
2023-03-11T14:15:18.983Z,1.60
2023-03-11T14:17:48.605Z,1.10
2023-03-11T14:20:17.595Z,0.70
2023-03-11T14:22:45.052Z,1.02
2023-03-11T14:25:18.282Z,1.05
2023-03-11T14:27:50.634Z,0.52
2023-03-11T14:30:25.232Z,1.08
2023-03-11T14:33:00.699Z,1.23
2023-03-11T14:35:28.277Z,2.58
2023-03-11T14:37:55.326Z,2.30
2023-03-11T14:40:26.123Z,3.63
2023-03-11T14:42:54.947Z,3.53
2023-03-11T14:45:24.658Z,2.55
2023-03-11T14:47:54.597Z,1.30
2023-03-11T14:50:24.463Z,0.80
2023-03-11T14:52:53.143Z,1.45
2023-03-11T14:55:22.388Z,0.77
2023-03-11T14:57:52.453Z,1.38
2023-03-11T15:00:23.735Z,1.58
2023-03-11T15:03:01.754Z,1.55
2023-03-11T15:05:35.122Z,1.40
2023-03-11T15:08:03.762Z,1.27
2023-03-11T15:10:30.901Z,0.82
2023-03-11T15:13:06.406Z,1.60
2023-03-11T15:15:34.833Z,1.40
2023-03-11T15:18:02.159Z,1.00
2023-03-11T15:20:31.639Z,0.70
2023-03-11T15:23:03.340Z,0.75
2023-03-11T15:25:33.263Z,0.77
2023-03-11T15:28:00.834Z,1.35
2023-03-11T15:30:30.073Z,1.50
2023-03-11T15:32:58.993Z,0.60
2023-03-11T15:35:27.707Z,1.00
2023-03-11T15:38:12.759Z,0.55
2023-03-11T15:40:45.578Z,0.73
2023-03-11T15:43:28.655Z,1.05
2023-03-11T15:45:57.251Z,0.88
2023-03-11T15:48:27.864Z,0.93
2023-03-11T15:50:56.420Z,1.20
2023-03-11T15:55:52.087Z,1.65
2023-03-11T15:58:20.374Z,2.20
2023-03-11T16:00:49.173Z,1.25
2023-03-11T16:03:16.522Z,1.80
2023-03-11T16:05:44.975Z,2.00
2023-03-11T16:10:39.360Z,3.38
2023-03-11T16:13:06.619Z,3.03
2023-03-11T16:15:35.160Z,3.03
2023-03-11T16:20:31.533Z,3.20
2023-03-11T16:23:01.793Z,3.65
2023-03-11T16:25:31.250Z,3.80
2023-03-11T16:27:58.587Z,4.25
2023-03-11T16:30:29.302Z,3.88
2023-03-11T16:32:56.731Z,3.35
2023-03-11T16:35:23.995Z,3.92
2023-03-11T16:37:51.199Z,2.97
2023-03-11T16:40:21.511Z,3.13
2023-03-11T16:42:48.653Z,3.90
2023-03-11T16:45:17.112Z,3.35
2023-03-11T16:47:44.045Z,4.05
2023-03-11T16:50:12.222Z,3.15
2023-03-11T16:52:39.496Z,2.13
2023-03-11T16:55:07.159Z,2.17
2023-03-11T16:57:36.429Z,2.40
2023-03-11T17:00:05.685Z,2.20
2023-03-11T17:02:33.292Z,1.67
2023-03-11T17:05:00.365Z,2.22
2023-03-11T17:07:27.551Z,2.13
2023-03-11T17:09:54.516Z,1.98
2023-03-11T17:12:23.190Z,1.92
2023-03-11T17:14:52.031Z,2.00
2023-03-11T17:17:19.284Z,1.83
2023-03-11T17:19:46.479Z,1.95
2023-03-11T17:22:13.766Z,2.50
2023-03-11T17:24:41.063Z,1.88
2023-03-11T17:27:07.989Z,1.88
2023-03-11T17:29:35.054Z,1.92
2023-03-11T17:32:03.802Z,1.60
2023-03-11T17:34:30.840Z,1.70
2023-03-11T17:36:57.874Z,1.77
2023-03-11T17:39:24.931Z,1.15
2023-03-11T17:41:52.246Z,1.95
2023-03-11T17:44:19.224Z,1.88
2023-03-11T17:46:47.570Z,2.13
2023-03-11T17:49:15.951Z,1.65
2023-03-11T17:51:42.913Z,1.67
2023-03-11T17:54:09.812Z,1.30
2023-03-11T17:56:36.827Z,2.25
2023-03-11T17:59:03.737Z,2.25
2023-03-11T18:01:30.731Z,1.23
2023-03-11T18:03:57.818Z,1.58
2023-03-11T18:06:26.096Z,1.77
2023-03-11T18:08:53.123Z,1.23
2023-03-11T18:11:21.736Z,0.60
2023-03-11T18:13:49.272Z,1.40
2023-03-11T18:16:18.140Z,2.13
2023-03-11T18:18:45.515Z,1.60
2023-03-11T18:21:13.581Z,2.03
2023-03-11T18:23:42.635Z,2.65
2023-03-11T18:26:12.573Z,1.33
2023-03-11T18:28:39.689Z,1.52
2023-03-11T18:31:07.650Z,1.35
2023-03-11T18:33:34.614Z,0.95
2023-03-11T18:36:11.517Z,1.52
2023-03-11T18:38:38.500Z,1.20
2023-03-11T18:41:06.833Z,0.70
2023-03-11T18:43:33.779Z,1.30
2023-03-11T18:46:01.486Z,1.35
2023-03-11T18:48:28.694Z,0.90
2023-03-11T18:50:56.090Z,1.15
2023-03-11T18:53:25.023Z,1.05
2023-03-11T18:55:52.547Z,0.50
2023-03-11T18:58:20.799Z,1.40
2023-03-11T19:00:47.925Z,1.63
2023-03-11T19:03:15.052Z,1.00
2023-03-11T19:05:48.925Z,0.47
2023-03-11T19:08:17.227Z,0.68
2023-03-11T19:10:44.266Z,0.70
2023-03-11T19:13:11.263Z,1.00
2023-03-11T19:15:40.926Z,0.40
2023-03-11T19:18:08.452Z,0.43
2023-03-11T19:20:35.611Z,0.68
2023-03-11T19:23:02.618Z,0.95
2023-03-11T19:25:29.559Z,0.90
2023-03-11T19:27:57.036Z,1.20
2023-03-11T19:30:24.288Z,0.77
2023-03-11T19:32:53.036Z,1.08
2023-03-11T19:35:21.254Z,0.82
2023-03-11T19:37:48.407Z,0.70
2023-03-11T19:40:15.963Z,0.63
2023-03-11T19:42:43.139Z,0.75
2023-03-11T19:45:10.989Z,0.20
2023-03-11T19:47:38.392Z,1.13
2023-03-11T19:50:07.701Z,0.68
2023-03-11T19:52:36.053Z,0.70
2023-03-11T19:55:03.587Z,1.75
2023-03-11T19:57:30.608Z,1.00
2023-03-11T19:59:57.532Z,1.25
2023-03-11T20:02:24.713Z,0.80
2023-03-11T20:04:51.860Z,1.02
2023-03-11T20:07:20.238Z,0.85
2023-03-11T20:09:47.319Z,1.00
2023-03-11T20:12:14.307Z,0.57
2023-03-11T20:14:41.929Z,1.00
2023-03-11T20:17:09.195Z,1.00
2023-03-11T20:19:36.467Z,0.47
2023-03-11T20:22:03.562Z,0.98
2023-03-11T20:24:32.127Z,0.43
2023-03-11T20:26:59.091Z,0.65
2023-03-11T20:29:26.069Z,0.32
2023-03-11T20:31:53.313Z,0.38
2023-03-11T20:34:20.427Z,0.95
2023-03-11T20:36:48.504Z,0.93
2023-03-11T20:39:15.491Z,0.70
2023-03-11T20:41:43.960Z,0.90
2023-03-11T20:44:13.047Z,0.32
2023-03-11T20:46:40.337Z,0.50
2023-03-11T20:49:07.359Z,1.02
2023-03-11T20:51:34.464Z,0.82
2023-03-11T20:54:01.393Z,1.00
2023-03-11T20:56:28.630Z,0.98
2023-03-11T20:58:59.265Z,1.10
2023-03-11T21:01:28.685Z,1.05
2023-03-11T21:03:57.167Z,0.70
2023-03-11T21:06:25.935Z,1.13
2023-03-11T21:08:53.608Z,1.08
2023-03-11T21:11:20.562Z,1.00
2023-03-11T21:13:47.702Z,1.08
2023-03-11T21:16:16.215Z,2.63
2023-03-11T21:18:44.458Z,0.88
2023-03-11T21:21:11.846Z,0.90
2023-03-11T21:23:39.587Z,0.85
2023-03-11T21:26:07.113Z,1.27
2023-03-11T21:28:34.885Z,0.60
2023-03-11T21:31:04.286Z,0.90
2023-03-11T21:33:32.773Z,0.95
2023-03-11T21:36:00.784Z,1.17
2023-03-11T21:38:28.304Z,1.05
2023-03-11T21:41:04.913Z,0.90
2023-03-11T21:43:31.976Z,0.73
2023-03-11T21:45:59.005Z,3.05
2023-03-11T21:48:26.338Z,3.20
2023-03-11T21:50:54.783Z,2.45
2023-03-11T21:53:21.938Z,1.48
2023-03-11T21:55:48.919Z,1.80
2023-03-11T21:58:16.088Z,1.30
2023-03-11T22:00:43.246Z,0.65
2023-03-11T22:03:10.606Z,1.23
2023-03-11T22:05:37.738Z,1.30
2023-03-11T22:08:06.405Z,0.70
2023-03-11T22:10:33.741Z,0.98
2023-03-11T22:13:00.959Z,1.35
2023-03-11T22:15:28.163Z,1.23
2023-03-11T22:17:55.293Z,1.05
2023-03-11T22:23:09.164Z,0.63
2023-03-11T22:25:36.621Z,1.27
2023-03-11T22:28:04.149Z,1.20
2023-03-11T22:30:31.588Z,1.10
2023-03-11T22:32:58.621Z,1.20
2023-03-11T22:35:25.812Z,0.80
2023-03-11T22:37:52.885Z,1.15
2023-03-11T22:40:21.231Z,1.98
2023-03-11T22:42:48.186Z,0.93
2023-03-11T22:45:15.285Z,1.13
2023-03-11T22:47:42.195Z,1.60
2023-03-11T22:50:10.192Z,1.98
2023-03-11T22:52:37.385Z,1.95
2023-03-11T22:55:04.728Z,1.40
2023-03-11T22:57:38.791Z,1.80
2023-03-11T23:00:17.033Z,2.05
2023-03-11T23:02:44.691Z,1.20
2023-03-11T23:05:12.063Z,1.83
2023-03-11T23:07:39.077Z,1.67
2023-03-11T23:10:07.780Z,1.52
2023-03-11T23:12:36.236Z,1.85
2023-03-11T23:15:04.270Z,1.85
2023-03-11T23:17:31.181Z,1.92
2023-03-11T23:19:58.178Z,1.50
2023-03-11T23:22:25.351Z,1.70
2023-03-11T23:24:52.478Z,1.50
2023-03-11T23:27:19.565Z,1.73
2023-03-11T23:29:48.093Z,1.35
2023-03-11T23:32:15.086Z,1.73
2023-03-11T23:34:42.064Z,1.65
2023-03-11T23:37:08.986Z,1.33
2023-03-11T23:39:35.870Z,2.10
2023-03-11T23:42:11.803Z,1.23
2023-03-11T23:44:51.027Z,1.60
2023-03-11T23:47:18.227Z,2.38
2023-03-11T23:49:45.130Z,1.83
2023-03-11T23:52:12.100Z,1.35
2023-03-11T23:54:39.109Z,2.55
2023-03-11T23:57:06.124Z,2.40
2023-03-11T23:59:33.200Z,2.38
